Latest Weather Observations for Pallamana

IDS60801

Issued at 5:01 am CST Thursday 27 April 2017 (issued every 30 minutes, with the page automatically refreshed every 10 minutes)

About weather observations | Map of weather stations | Latest weather observations for SA | Other Formats
Station Details ID: 024584 Name: PALLAMANA AERODROME Lat: -35.06 Lon: 139.23 Height: 45.0 m
Data from the previous 72 hours. | See also: Recent months at Pallamana
Date/Time
CST
Temp
°C
App
Temp
°C
Dew
Point
°C
Rel
Hum
%
Delta-T
°C
Wind Press
QNH
hPa
Press
MSL
hPa
Rain since
9am
mm
Dir  Spd
km/h
Gust
km/h
Spd
kts
Gust
kts
27/05:00am 9.9 7.8 8.2 89 0.8 WNW 9 13 5 7 1026.4 1026.4 2.0
27/04:30am 9.5 8.0 8.5 93 0.5 SW 6 11 3 6 1026.3 1026.3 2.0
27/04:00am 9.5 8.0 8.3 92 0.6 SSE 6 9 3 5 1026.2 1026.2 2.0
27/03:30am 9.6 7.8 8.1 90 0.7 S 7 11 4 6 1025.9 1025.9 2.0
27/03:00am 9.5 7.3 7.8 89 0.8 SE 9 11 5 6 1025.8 1025.8 2.0
27/02:30am 9.9 6.5 7.8 87 1.0 W 15 20 8 11 1026.1 1026.1 2.0
27/02:00am 10.3 6.6 8.0 86 1.1 W 17 24 9 13 1026.0 1026.0 2.0
27/01:30am 10.3 6.2 8.0 86 1.1 W 19 24 10 13 1026.1 1026.1 2.0
27/01:00am 10.3 6.2 8.0 86 1.1 WSW 19 22 10 12 1026.0 1026.0 2.0
27/12:30am 10.0 6.0 8.3 89 0.8 WSW 19 22 10 12 1025.9 1025.9 2.0
27/12:00am 9.9 6.2 8.0 88 0.9 WSW 17 20 9 11 1025.8 1025.8 1.8
 
Date/Time
CST
Temp
°C
App
Temp
°C
Dew
Point
°C
Rel
Hum
%
Delta-T
°C
Wind Press
QNH
hPa
Press
MSL
hPa
Rain since
9am
mm
Dir  Spd
km/h
Gust
km/h
Spd
kts
Gust
kts
26/11:30pm 10.1 5.0 7.8 86 1.1 SW 24 35 13 19 1026.0 1026.0 1.8
26/11:27pm 10.2 5.5 7.7 84 1.2 SW 22 35 12 19 1025.9 1025.9 1.6
26/11:00pm 9.1 5.8 6.5 84 1.2 WSW 13 15 7 8 1025.7 1025.7 1.4
26/10:47pm 9.4 7.1 7.3 87 1.0 WSW 9 13 5 7 1025.7 1025.7 1.4
26/10:34pm 9.9 6.8 7.4 84 1.2 SSW 13 17 7 9 1025.9 1025.9 1.4
26/10:30pm 10.1 6.6 7.1 81 1.4 SW 15 17 8 9 1025.9 1025.9 1.2
26/10:00pm 9.9 6.6 6.2 78 1.7 WSW 13 15 7 8 1025.7 1025.7 1.0
26/09:30pm 9.5 5.7 6.0 79 1.6 SW 15 19 8 10 1025.6 1025.6 1.0
26/09:00pm 10.3 6.1 5.7 73 2.1 W 17 20 9 11 1025.0 1025.0 1.0
26/08:30pm 10.6 6.1 6.1 74 2.1 WSW 19 22 10 12 1025.0 1025.0 1.0
26/08:00pm 10.5 6.3 5.7 72 2.2 SW 17 20 9 11 1024.9 1024.9 1.0
26/07:30pm 9.5 5.8 6.2 80 1.5 WSW 15 17 8 9 1024.7 1024.7 1.0
26/07:00pm 10.6 7.4 6.8 77 1.8 SW 13 15 7 8 1024.5 1024.5 1.0
26/06:30pm 11.1 7.5 6.9 75 2.0 SW 15 20 8 11 1024.1 1024.1 1.0
26/06:00pm 11.5 7.1 6.6 72 2.3 SW 19 22 10 12 1023.8 1023.8 1.0
26/05:30pm 12.3 9.0 6.4 67 2.8 SSW 13 17 7 9 1023.4 1023.4 1.0
26/05:00pm 12.4 7.7 6.0 65 3.0 SW 20 26 11 14 1023.2 1023.2 1.0
26/04:30pm 12.6 8.4 5.5 62 3.3 SSW 17 22 9 12 1023.2 1023.2 1.0
26/04:00pm 11.7 6.0 6.9 72 2.3 SSW 26 39 14 21 1023.3 1023.3 1.0
26/03:30pm 13.6 6.7 4.7 55 4.1 S 30 48 16 26 1022.5 1022.5 1.0
26/03:27pm 14.1 7.6 4.8 53 4.3 S 28 48 15 26 1022.5 1022.5 1.0
26/03:00pm 14.3 9.5 5.4 55 4.2 SSW 20 30 11 16 1022.5 1022.5 1.0
26/02:30pm 12.9 5.3 5.6 61 3.4 SSW 35 48 19 26 1022.2 1022.1 1.0
26/02:12pm 15.4 8.9 4.7 49 5.0 SSW 28 46 15 25 1021.9 1021.8 1.0
26/02:00pm 13.7 6.3 4.0 52 4.4 SSW 32 44 17 24 1021.9 1021.8 1.0
26/01:30pm 13.0 6.5 6.7 65 3.0 SSW 30 46 16 25 1021.7 1021.6 1.0
26/01:06pm 13.4 8.0 9.5 77 2.0 SSW 28 46 15 25 1021.8 1021.7 1.0
26/01:00pm 11.9 6.5 8.2 78 1.8 SSW 26 35 14 19 1021.9 1021.8 1.0
26/12:52pm 11.3 4.4 7.3 76 1.9 S 33 52 18 28 1021.9 1021.8 1.0
26/12:46pm 12.1 4.6 6.4 68 2.7 S 35 52 19 28 1021.6 1021.5 0.8
26/12:30pm 13.3 8.5 7.3 67 2.9 S 22 33 12 18 1021.6 1021.5 0.8
26/12:13pm 14.3 7.8 6.6 60 3.7 SSW 30 48 16 26 1021.6 1021.5 0.8
26/12:00pm 14.0 6.8 5.2 55 4.1 SSW 32 48 17 26 1021.7 1021.6 0.8
26/11:30am 13.8 5.9 6.0 59 3.7 S 37 48 20 26 1021.6 1021.5 0.8
26/11:15am 13.5 6.4 5.4 58 3.8 S 32 52 17 28 1021.5 1021.4 0.8
26/11:00am 13.1 8.6 8.5 73 2.3 SSW 22 33 12 18 1021.2 1021.1 0.8
26/10:30am 12.9 6.0 6.6 65 3.0 SSW 32 43 17 23 1021.1 1021.0 0.4
26/10:00am 12.5 6.2 7.6 72 2.4 SSW 30 37 16 20 1020.9 1020.8 0.4
26/09:43am 10.9 4.0 7.1 77 1.8 SSW 33 44 18 24 1020.8 1020.7 0.4
26/09:30am 10.0 1.6 7.3 83 1.3 SSW 41 56 22 30 1020.8 1020.7 0.4
26/09:27am 10.1 2.5 7.4 83 1.3 SSW 37 56 20 30 1020.8 1020.7 0.2
26/09:00am 10.3 3.8 6.4 77 1.8 S 30 50 16 27 1020.4 1020.3 4.0
26/08:51am 9.7 2.6 6.2 79 1.6 SSW 33 57 18 31 1020.2 1020.1 4.0
26/08:45am 10.5 4.4 6.7 77 1.8 SW 28 57 15 31 1020.3 1020.2 3.8
26/08:30am 11.9 6.4 5.9 66 2.8 SW 24 33 13 18 1019.7 1019.6 3.4
26/08:00am 11.1 5.7 4.7 64 2.9 SW 22 35 12 19 1018.9 1018.8 3.4
26/07:30am 9.3 4.3 4.8 73 2.0 SW 20 28 11 15 1018.4 1018.3 3.4
26/07:00am 9.3 2.8 4.6 72 2.1 SW 28 35 15 19 1017.7 1017.6 3.4
26/06:30am 9.2 3.1 4.7 73 2.0 WSW 26 33 14 18 1017.4 1017.3 3.4
26/06:00am 9.1 1.9 4.8 74 1.9 SW 32 50 17 27 1017.0 1016.9 3.4
26/05:52am 9.3 2.9 5.1 75 1.9 SW 28 50 15 27 1017.0 1016.9 3.4
26/05:30am 9.3 4.0 5.1 75 1.9 SW 22 30 12 16 1016.4 1016.3 3.4
26/05:00am 9.2 2.8 5.4 77 1.7 WSW 28 35 15 19 1015.9 1015.8 3.4
26/04:30am 9.4 3.0 5.4 76 1.8 SW 28 33 15 18 1015.5 1015.4 3.4
26/04:00am 10.0 4.0 7.0 81 1.4 SW 28 37 15 20 1015.0 1014.9 3.4
26/03:30am 10.1 4.0 8.2 88 0.9 SW 30 39 16 21 1014.7 1014.6 3.4
26/03:00am 10.4 3.2 7.7 83 1.3 SW 35 50 19 27 1014.5 1014.4 3.2
26/02:30am 10.9 4.6 7.4 79 1.7 WSW 30 50 16 27 1013.9 1013.8 2.6
26/02:06am 11.9 3.8 7.1 72 2.3 WSW 39 72 21 39 1013.6 1013.5 2.6
26/02:03am 12.2 4.9 7.0 70 2.5 WSW 35 54 19 29 1013.7 1013.6 2.6
26/02:00am 12.3 5.3 6.9 69 2.6 WSW 33 44 18 24 1013.5 1013.4 2.6
26/01:30am 12.3 6.1 7.8 74 2.2 SW 30 46 16 25 1013.2 1013.1 2.6
26/01:27am 12.6 6.8 7.9 73 2.3 SW 28 46 15 25 1013.2 1013.1 2.6
26/01:00am 12.8 7.1 8.4 74 2.2 WSW 28 35 15 19 1012.8 1012.7 2.6
26/12:30am 12.8 7.8 9.7 81 1.6 WSW 26 33 14 18 1012.6 1012.5 2.6
26/12:00am 12.8 6.8 10.9 88 1.0 SW 33 46 18 25 1012.4 1012.3 2.6
 
Date/Time
CST
Temp
°C
App
Temp
°C
Dew
Point
°C
Rel
Hum
%
Delta-T
°C
Wind Press
QNH
hPa
Press
MSL
hPa
Rain since
9am
mm
Dir  Spd
km/h
Gust
km/h
Spd
kts
Gust
kts
25/11:30pm 13.1 7.8 11.4 89 0.9 WSW 30 41 16 22 1012.2 1012.1 2.6
25/11:18pm 13.3 7.9 11.0 86 1.2 WSW 30 39 16 21 1012.0 1011.9 2.4
25/11:00pm 13.7 9.9 11.3 85 1.3 W 22 30 12 16 1012.0 1011.9 1.6
25/10:30pm 13.9 11.3 10.7 81 1.7 W 15 20 8 11 1012.1 1012.0 0.6
25/10:00pm 13.3 11.1 9.4 77 2.0 WNW 11 15 6 8 1012.2 1012.1 0.2
25/09:30pm 12.6 10.8 9.5 81 1.6 N 9 11 5 6 1012.0 1011.9 0.2
25/09:00pm 13.4 12.2 10.3 81 1.6 NW 7 9 4 5 1012.3 1012.2 0.2
25/08:30pm 14.6 13.2 10.8 78 2.0 WNW 9 13 5 7 1012.5 1012.4 0.2
25/08:00pm 14.8 12.8 11.4 80 1.8 W 13 20 7 11 1012.7 1012.6 0.2
25/07:30pm 14.4 12.5 11.8 84 1.4 W 13 17 7 9 1012.6 1012.5 0.2
25/07:00pm 14.7 12.7 11.5 81 1.7 W 13 22 7 12 1012.4 1012.3 0.2
25/06:30pm 14.8 12.5 11.6 81 1.7 W 15 22 8 12 1012.1 1012.0 0.2
25/06:00pm 15.0 11.4 11.9 82 1.7 WSW 22 30 12 16 1012.1 1012.0 0.2
25/05:30pm 15.5 12.1 12.4 82 1.7 W 22 30 12 16 1011.6 1011.5 0.2
25/05:13pm 15.1 13.2 12.9 87 1.2 W 15 24 8 13 1011.8 1011.7 0.2
25/05:00pm 14.9 11.6 12.9 88 1.1 WSW 22 32 12 17 1011.8 1011.7 0.0
25/04:48pm 15.7 11.1 12.4 81 1.8 W 28 41 15 22 1012.0 1011.9 0.0
25/04:30pm 19.1 15.0 8.8 51 5.4 W 20 32 11 17 1011.4 1011.3 0.0
25/04:00pm 20.5 15.5 6.4 40 7.1 W 22 32 12 17 1010.9 1010.9 0.0
25/03:30pm 21.5 15.4 6.6 38 7.6 WSW 28 37 15 20 1010.9 1010.9 0.0
25/03:00pm 21.1 15.7 6.5 38 7.4 W 24 35 13 19 1010.9 1010.9 0.0
25/02:30pm 20.1 14.6 7.7 44 6.4 W 26 37 14 20 1011.1 1011.1 0.0
25/02:00pm 20.9 15.7 8.8 46 6.4 WSW 26 35 14 19 1011.4 1011.3 0.0
25/01:30pm 20.5 14.5 7.2 42 6.8 WSW 28 39 15 21 1011.7 1011.6 0.0
25/01:00pm 21.8 16.0 9.3 45 6.7 W 30 41 16 22 1011.9 1011.8 0.0
25/12:30pm 21.3 15.7 10.1 48 6.1 WSW 30 39 16 21 1012.2 1012.1 0.0
25/12:00pm 21.4 17.6 11.3 52 5.6 WSW 22 32 12 17 1012.3 1012.2 0.0
25/11:30am 20.6 16.5 11.4 55 5.1 WSW 24 32 13 17 1012.7 1012.6 0.0
25/11:00am 20.0 16.4 11.9 59 4.5 SW 22 32 12 17 1013.2 1013.1 0.0
25/10:30am 19.1 15.1 11.9 63 4.0 WSW 24 32 13 17 1013.6 1013.5 0.0
25/10:00am 19.4 14.8 12.2 63 4.0 WSW 28 35 15 19 1013.6 1013.5 0.0
25/09:30am 18.8 14.5 12.1 65 3.7 WSW 26 32 14 17 1013.5 1013.4 0.0
25/09:00am 17.8 14.8 12.6 71 2.9 WSW 20 28 11 15 1013.6 1013.5 3.6
25/08:30am 17.0 13.9 12.3 74 2.6 W 20 28 11 15 1013.6 1013.5 3.6
25/08:00am 16.0 14.3 12.4 79 2.0 W 13 20 7 11 1013.4 1013.3 3.6
25/07:30am 13.7 13.0 12.0 89 0.9 NW 7 11 4 6 1013.1 1013.0 3.6
25/07:00am 12.1 10.3 10.8 92 0.7 SW 11 15 6 8 1012.6 1012.5 3.6
25/06:30am 12.8 12.1 11.5 92 0.7 WSW 6 9 3 5 1012.3 1012.2 3.6
25/06:00am 13.5 12.3 11.6 88 1.0 WNW 9 11 5 6 1012.0 1011.9 3.6
25/05:30am 14.3 12.9 12.1 87 1.2 W 11 15 6 8 1011.9 1011.8 3.6
25/05:00am 14.1 12.6 11.9 86 1.2 WNW 11 13 6 7 1011.8 1011.7 3.6
25/04:30am 14.3 12.6 12.3 88 1.1 W 13 15 7 8 1011.7 1011.6 3.6
25/04:00am 14.5 12.4 12.5 88 1.1 W 15 19 8 10 1011.7 1011.6 3.6
25/03:30am 14.5 12.5 12.7 89 1.0 WSW 15 17 8 9 1011.7 1011.6 3.6
25/03:00am 15.3 13.0 13.1 87 1.2 W 17 20 9 11 1011.6 1011.5 3.4
25/02:30am 15.5 13.5 13.9 90 0.9 W 17 20 9 11 1011.6 1011.5 3.4
25/02:00am 15.6 14.2 14.4 93 0.7 W 15 17 8 9 1011.6 1011.5 3.4
25/01:30am 16.3 15.8 14.9 91 0.8 WSW 11 13 6 7 1011.7 1011.6 3.4
25/01:23am 16.4 15.5 14.8 90 0.9 WSW 13 17 7 9 1011.7 1011.6 3.4
25/01:04am 16.6 14.4 15.0 90 0.9 WSW 20 26 11 14 1011.9 1011.8 3.4
25/01:00am 16.6 14.7 15.2 91 0.8 WSW 19 22 10 12 1011.9 1011.8 3.2
25/12:30am 15.9 16.2 15.0 94 0.5 W 7 7 4 4 1011.8 1011.7 3.2
25/12:00am 15.6 15.9 14.9 96 0.4 NW 7 13 4 7 1012.0 1011.9 3.2
 
Date/Time
CST
Temp
°C
App
Temp
°C
Dew
Point
°C
Rel
Hum
%
Delta-T
°C
Wind Press
QNH
hPa
Press
MSL
hPa
Rain since
9am
mm
Dir  Spd
km/h
Gust
km/h
Spd
kts
Gust
kts
24/11:30pm 15.6 15.5 14.9 96 0.4 NNW 9 11 5 6 1012.0 1011.9 3.0
24/11:00pm 15.7 16.0 15.0 96 0.4 NNW 7 9 4 5 1012.6 1012.5 3.0
24/10:30pm 15.8 16.1 15.1 96 0.4 NNW 7 11 4 6 1012.9 1012.8 3.0
24/10:00pm 16.3 16.8 15.6 96 0.4 N 7 9 4 5 1012.9 1012.8 3.0
24/09:30pm 16.7 17.0 15.9 95 0.5 N 9 11 5 6 1013.4 1013.3 3.0
24/09:00pm 16.8 16.7 16.0 95 0.5 N 11 13 6 7 1013.5 1013.4 3.0
24/08:30pm 17.1 17.4 15.9 93 0.7 N 9 11 5 6 1013.6 1013.5 2.2
24/08:03pm 17.2 17.8 15.8 91 0.8 NW 7 11 4 6 1013.8 1013.7 2.0
24/08:00pm 17.3 17.5 15.8 91 0.9 NW 9 11 5 6 1013.8 1013.7 1.8
24/07:47pm 17.6 16.2 15.6 88 1.2 WNW 17 24 9 13 1013.8 1013.7 1.8
24/07:30pm 18.6 18.1 14.8 78 2.2 WNW 11 17 6 9 1013.7 1013.6 1.2
24/07:00pm 17.8 18.5 15.6 87 1.3 WNW 6 11 3 6 1013.8 1013.7 1.2
24/06:30pm 17.7 19.5 15.5 87 1.3 CALM 0 6 0 3 1013.5 1013.4 1.2
24/06:00pm 17.7 19.2 15.8 89 1.1 NNE 2 6 1 3 1013.2 1013.1 1.2
24/05:30pm 17.9 18.6 15.7 87 1.3 NNW 6 9 3 5 1012.9 1012.8 1.2
24/05:00pm 18.4 17.3 15.3 82 1.8 NNW 15 20 8 11 1013.0 1012.9 1.0
24/04:30pm 18.7 18.9 15.8 83 1.7 NW 9 13 5 7 1013.0 1012.9 0.8
24/04:00pm 19.4 19.0 16.1 81 2.0 WNW 13 19 7 10 1013.3 1013.2 0.6
24/03:30pm 19.2 19.9 17.9 92 0.8 N 11 15 6 8 1013.3 1013.2 0.6
24/03:00pm 19.2 19.8 17.6 90 1.0 N 11 15 6 8 1013.4 1013.3 0.4
24/02:30pm 19.4 20.7 17.6 89 1.1 N 7 11 4 6 1013.3 1013.2 0.2
24/02:00pm 19.2 19.8 16.7 85 1.5 NE 9 11 5 6 1013.4 1013.3 0.0
24/01:30pm 19.4 20.0 16.9 85 1.5 NNE 9 13 5 7 1014.2 1014.1 0.0
24/01:00pm 18.4 18.8 16.4 88 1.2 N 9 13 5 7 1014.9 1014.8 0.0
24/12:30pm 17.4 17.9 15.5 89 1.1 N 7 9 4 5 1015.5 1015.4 0.0
24/12:00pm 17.2 17.6 15.3 88 1.1 N 7 11 4 6 1016.0 1015.9 0.0
24/11:30am 16.9 18.1 14.8 87 1.2 NE 2 9 1 5 1016.5 1016.4 0.0
24/11:00am 16.5 18.0 14.6 88 1.1 CALM 0 0 0 0 1017.0 1016.9 0.0
24/10:30am 16.3 17.0 14.6 90 1.0 E 4 9 2 5 1017.4 1017.3 0.0
24/10:00am 16.0 16.3 14.4 90 0.9 SSW 6 7 3 4 1017.8 1017.7 0.0
24/09:45am 16.2 17.6 14.4 89 1.0 CALM 0 6 0 3 1017.9 1017.8 0.0
24/09:30am 16.1 16.1 14.2 88 1.1 WSW 7 9 4 5 1018.1 1018.0 0.0
24/09:19am 15.9 16.4 14.1 89 1.0 W 4 7 2 4 1018.3 1018.2 0.0
24/09:00am 15.7 17.0 14.1 90 0.9 CALM 0 7 0 4 1018.4 1018.3 4.0
24/08:30am 15.4 15.6 14.2 92 0.7 SW 6 9 3 5 1018.5 1018.4 4.0
24/08:00am 15.4 15.4 14.3 93 0.6 SW 7 9 4 5 1018.3 1018.2 4.0
24/07:30am 15.0 15.0 14.1 94 0.5 WSW 7 9 4 5 1018.4 1018.3 4.0
24/07:00am 14.8 14.7 13.9 94 0.5 SSW 7 7 4 4 1018.1 1018.0 4.0
24/06:30am 15.0 15.2 14.1 94 0.5 S 6 7 3 4 1018.3 1018.2 4.0
24/06:00am 15.0 15.2 14.1 94 0.5 SW 6 7 3 4 1018.4 1018.3 4.0
24/05:30am 14.8 14.9 13.9 94 0.5 SSW 6 7 3 4 1018.5 1018.4 4.0

Other Formats:

Comma delimited format used in spreadsheet applications
http://www.bom.gov.au/fwo/IDS60801/IDS60801.95818.axf

JavaScript Object Notation format (JSON) in row-major order
http://www.bom.gov.au/fwo/IDS60801/IDS60801.95818.json